sensor_id;sensor_type;location;lat;lon;timestamp;P1;durP1;ratioP1;P2;durP2;ratioP2
52033;SDS011;38045;52.988;6.536;2023-02-28T00:01:22;6.45;;;2.78;;
52033;SDS011;38045;52.988;6.536;2023-02-28T00:03:47;11.15;;;3.55;;
52033;SDS011;38045;52.988;6.536;2023-02-28T00:06:13;5.95;;;2.85;;
52033;SDS011;38045;52.988;6.536;2023-02-28T00:08:39;7.47;;;3.50;;
52033;SDS011;38045;52.988;6.536;2023-02-28T00:11:06;9.00;;;4.22;;
52033;SDS011;38045;52.988;6.536;2023-02-28T00:13:34;8.95;;;4.55;;
52033;SDS011;38045;52.988;6.536;2023-02-28T00:16:03;8.98;;;3.88;;
52033;SDS011;38045;52.988;6.536;2023-02-28T00:18:30;7.03;;;3.75;;
52033;SDS011;38045;52.988;6.536;2023-02-28T00:20:57;9.35;;;3.03;;
52033;SDS011;38045;52.988;6.536;2023-02-28T00:23:23;7.05;;;3.00;;
52033;SDS011;38045;52.988;6.536;2023-02-28T00:25:49;5.32;;;3.65;;
52033;SDS011;38045;52.988;6.536;2023-02-28T00:28:16;8.90;;;3.65;;
52033;SDS011;38045;52.988;6.536;2023-02-28T00:30:42;9.43;;;4.07;;
52033;SDS011;38045;52.988;6.536;2023-02-28T00:33:10;4.05;;;3.17;;
52033;SDS011;38045;52.988;6.536;2023-02-28T00:35:36;10.45;;;3.72;;
52033;SDS011;38045;52.988;6.536;2023-02-28T00:38:02;7.72;;;3.45;;
52033;SDS011;38045;52.988;6.536;2023-02-28T00:40:28;6.45;;;2.83;;
52033;SDS011;38045;52.988;6.536;2023-02-28T00:42:53;4.80;;;2.45;;
52033;SDS011;38045;52.988;6.536;2023-02-28T00:45:19;8.75;;;3.15;;
52033;SDS011;38045;52.988;6.536;2023-02-28T00:47:44;5.72;;;3.58;;
52033;SDS011;38045;52.988;6.536;2023-02-28T00:50:11;7.05;;;4.07;;
52033;SDS011;38045;52.988;6.536;2023-02-28T00:52:37;9.00;;;3.45;;
52033;SDS011;38045;52.988;6.536;2023-02-28T00:55:02;9.18;;;3.25;;
52033;SDS011;38045;52.988;6.536;2023-02-28T00:57:29;6.60;;;3.42;;
52033;SDS011;38045;52.988;6.536;2023-02-28T00:59:54;5.97;;;3.10;;
52033;SDS011;38045;52.988;6.536;2023-02-28T01:02:20;7.88;;;3.55;;
52033;SDS011;38045;52.988;6.536;2023-02-28T01:04:47;8.00;;;2.70;;
52033;SDS011;38045;52.988;6.536;2023-02-28T01:07:13;6.95;;;3.05;;
52033;SDS011;38045;52.988;6.536;2023-02-28T01:09:39;7.82;;;2.85;;
52033;SDS011;38045;52.988;6.536;2023-02-28T01:12:06;4.68;;;3.47;;
52033;SDS011;38045;52.988;6.536;2023-02-28T01:14:33;6.55;;;3.35;;
52033;SDS011;38045;52.988;6.536;2023-02-28T01:16:59;6.72;;;3.40;;
52033;SDS011;38045;52.988;6.536;2023-02-28T01:19:25;5.13;;;3.08;;
52033;SDS011;38045;52.988;6.536;2023-02-28T01:21:51;7.63;;;4.43;;
52033;SDS011;38045;52.988;6.536;2023-02-28T01:24:16;6.43;;;3.00;;
52033;SDS011;38045;52.988;6.536;2023-02-28T01:26:42;8.23;;;4.53;;
52033;SDS011;38045;52.988;6.536;2023-02-28T01:29:08;7.65;;;4.18;;
52033;SDS011;38045;52.988;6.536;2023-02-28T01:31:33;6.32;;;4.40;;
52033;SDS011;38045;52.988;6.536;2023-02-28T01:33:59;7.28;;;3.30;;
52033;SDS011;38045;52.988;6.536;2023-02-28T01:36:25;10.45;;;3.40;;
52033;SDS011;38045;52.988;6.536;2023-02-28T01:38:51;7.68;;;4.55;;
52033;SDS011;38045;52.988;6.536;2023-02-28T01:41:18;18.05;;;6.90;;
52033;SDS011;38045;52.988;6.536;2023-02-28T01:46:14;11.77;;;5.47;;
52033;SDS011;38045;52.988;6.536;2023-02-28T01:48:41;5.30;;;4.25;;
52033;SDS011;38045;52.988;6.536;2023-02-28T01:51:18;10.27;;;5.38;;
52033;SDS011;38045;52.988;6.536;2023-02-28T01:53:48;8.77;;;4.78;;
52033;SDS011;38045;52.988;6.536;2023-02-28T01:56:19;16.15;;;5.85;;
52033;SDS011;38045;52.988;6.536;2023-02-28T01:58:49;9.93;;;4.82;;
52033;SDS011;38045;52.988;6.536;2023-02-28T02:01:17;13.70;;;6.25;;
52033;SDS011;38045;52.988;6.536;2023-02-28T02:04:00;8.95;;;6.47;;
52033;SDS011;38045;52.988;6.536;2023-02-28T02:06:33;8.32;;;4.93;;
52033;SDS011;38045;52.988;6.536;2023-02-28T02:09:02;7.45;;;4.10;;
52033;SDS011;38045;52.988;6.536;2023-02-28T02:11:28;9.00;;;4.50;;
52033;SDS011;38045;52.988;6.536;2023-02-28T02:17:04;7.95;;;5.85;;
52033;SDS011;38045;52.988;6.536;2023-02-28T02:22:53;10.88;;;4.55;;
52033;SDS011;38045;52.988;6.536;2023-02-28T02:31:06;13.73;;;6.80;;
52033;SDS011;38045;52.988;6.536;2023-02-28T02:40:00;6.15;;;4.18;;
52033;SDS011;38045;52.988;6.536;2023-02-28T02:42:50;7.70;;;4.80;;
52033;SDS011;38045;52.988;6.536;2023-02-28T02:45:29;12.77;;;4.88;;
52033;SDS011;38045;52.988;6.536;2023-02-28T02:48:05;8.52;;;3.92;;
52033;SDS011;38045;52.988;6.536;2023-02-28T02:50:36;6.88;;;4.88;;
52033;SDS011;38045;52.988;6.536;2023-02-28T02:53:32;9.88;;;5.97;;
52033;SDS011;38045;52.988;6.536;2023-02-28T02:56:01;5.65;;;4.63;;
52033;SDS011;38045;52.988;6.536;2023-02-28T02:58:34;5.07;;;4.57;;
52033;SDS011;38045;52.988;6.536;2023-02-28T03:01:07;6.30;;;3.45;;
52033;SDS011;38045;52.988;6.536;2023-02-28T03:03:39;9.70;;;4.68;;
52033;SDS011;38045;52.988;6.536;2023-02-28T03:06:05;7.63;;;5.00;;
52033;SDS011;38045;52.988;6.536;2023-02-28T03:08:33;6.15;;;4.55;;
52033;SDS011;38045;52.988;6.536;2023-02-28T03:11:02;7.95;;;3.60;;
52033;SDS011;38045;52.988;6.536;2023-02-28T03:16:35;9.55;;;4.40;;
52033;SDS011;38045;52.988;6.536;2023-02-28T03:22:04;6.82;;;4.20;;
52033;SDS011;38045;52.988;6.536;2023-02-28T03:24:45;5.38;;;4.80;;
52033;SDS011;38045;52.988;6.536;2023-02-28T03:29:50;5.90;;;4.57;;
52033;SDS011;38045;52.988;6.536;2023-02-28T03:32:26;6.97;;;4.57;;
52033;SDS011;38045;52.988;6.536;2023-02-28T03:35:19;5.13;;;3.88;;
52033;SDS011;38045;52.988;6.536;2023-02-28T03:38:34;7.75;;;4.68;;
52033;SDS011;38045;52.988;6.536;2023-02-28T03:40:39;4.38;;;3.53;;
52033;SDS011;38045;52.988;6.536;2023-02-28T03:43:10;6.38;;;4.70;;
52033;SDS011;38045;52.988;6.536;2023-02-28T03:45:42;7.03;;;4.80;;
52033;SDS011;38045;52.988;6.536;2023-02-28T03:48:15;11.00;;;4.53;;
52033;SDS011;38045;52.988;6.536;2023-02-28T03:51:04;10.02;;;5.53;;
52033;SDS011;38045;52.988;6.536;2023-02-28T03:56:31;6.63;;;3.85;;
52033;SDS011;38045;52.988;6.536;2023-02-28T03:59:00;7.95;;;6.25;;
52033;SDS011;38045;52.988;6.536;2023-02-28T04:01:50;9.82;;;5.53;;
52033;SDS011;38045;52.988;6.536;2023-02-28T04:04:16;7.55;;;5.65;;
52033;SDS011;38045;52.988;6.536;2023-02-28T04:06:43;9.85;;;5.88;;
52033;SDS011;38045;52.988;6.536;2023-02-28T04:09:10;7.22;;;5.00;;
52033;SDS011;38045;52.988;6.536;2023-02-28T04:11:38;9.20;;;4.60;;
52033;SDS011;38045;52.988;6.536;2023-02-28T04:14:10;7.78;;;5.45;;
52033;SDS011;38045;52.988;6.536;2023-02-28T04:16:37;12.05;;;6.90;;
52033;SDS011;38045;52.988;6.536;2023-02-28T04:19:05;9.30;;;7.13;;
52033;SDS011;38045;52.988;6.536;2023-02-28T04:21:36;6.10;;;5.40;;
52033;SDS011;38045;52.988;6.536;2023-02-28T04:24:10;11.13;;;6.63;;
52033;SDS011;38045;52.988;6.536;2023-02-28T04:26:42;7.88;;;5.45;;
52033;SDS011;38045;52.988;6.536;2023-02-28T04:29:11;9.68;;;6.97;;
52033;SDS011;38045;52.988;6.536;2023-02-28T04:31:38;7.20;;;5.15;;
52033;SDS011;38045;52.988;6.536;2023-02-28T04:34:04;10.43;;;6.03;;
52033;SDS011;38045;52.988;6.536;2023-02-28T04:36:30;16.35;;;8.70;;
52033;SDS011;38045;52.988;6.536;2023-02-28T04:38:56;7.38;;;5.38;;
52033;SDS011;38045;52.988;6.536;2023-02-28T04:41:22;9.60;;;6.03;;
52033;SDS011;38045;52.988;6.536;2023-02-28T04:43:48;11.60;;;6.85;;
52033;SDS011;38045;52.988;6.536;2023-02-28T04:46:14;10.60;;;6.88;;
52033;SDS011;38045;52.988;6.536;2023-02-28T04:48:40;10.20;;;7.63;;
52033;SDS011;38045;52.988;6.536;2023-02-28T04:53:33;9.95;;;8.43;;
52033;SDS011;38045;52.988;6.536;2023-02-28T04:55:59;10.82;;;7.10;;
52033;SDS011;38045;52.988;6.536;2023-02-28T04:58:25;12.70;;;6.53;;
52033;SDS011;38045;52.988;6.536;2023-02-28T05:00:52;12.95;;;8.75;;
52033;SDS011;38045;52.988;6.536;2023-02-28T05:03:19;7.63;;;6.82;;
52033;SDS011;38045;52.988;6.536;2023-02-28T05:05:46;12.43;;;10.27;;
52033;SDS011;38045;52.988;6.536;2023-02-28T05:08:12;16.95;;;9.63;;
52033;SDS011;38045;52.988;6.536;2023-02-28T05:10:37;11.25;;;8.38;;
52033;SDS011;38045;52.988;6.536;2023-02-28T05:13:03;14.85;;;9.43;;
52033;SDS011;38045;52.988;6.536;2023-02-28T05:15:29;19.23;;;11.88;;
52033;SDS011;38045;52.988;6.536;2023-02-28T05:17:54;16.25;;;12.00;;
52033;SDS011;38045;52.988;6.536;2023-02-28T05:20:20;12.85;;;10.38;;
52033;SDS011;38045;52.988;6.536;2023-02-28T05:22:46;13.85;;;10.07;;
52033;SDS011;38045;52.988;6.536;2023-02-28T05:25:13;16.52;;;10.50;;
52033;SDS011;38045;52.988;6.536;2023-02-28T05:27:42;14.85;;;11.30;;
52033;SDS011;38045;52.988;6.536;2023-02-28T05:30:08;17.63;;;13.02;;
52033;SDS011;38045;52.988;6.536;2023-02-28T05:32:38;16.25;;;10.02;;
52033;SDS011;38045;52.988;6.536;2023-02-28T05:35:07;12.15;;;8.98;;
52033;SDS011;38045;52.988;6.536;2023-02-28T05:37:35;15.32;;;11.60;;
52033;SDS011;38045;52.988;6.536;2023-02-28T05:40:01;19.35;;;12.23;;
52033;SDS011;38045;52.988;6.536;2023-02-28T05:42:27;18.15;;;12.48;;
52033;SDS011;38045;52.988;6.536;2023-02-28T05:44:53;17.90;;;11.40;;
52033;SDS011;38045;52.988;6.536;2023-02-28T05:47:18;16.02;;;9.65;;
52033;SDS011;38045;52.988;6.536;2023-02-28T05:49:44;18.98;;;12.82;;
52033;SDS011;38045;52.988;6.536;2023-02-28T05:52:09;21.65;;;13.20;;
52033;SDS011;38045;52.988;6.536;2023-02-28T05:54:35;16.35;;;12.02;;
52033;SDS011;38045;52.988;6.536;2023-02-28T05:57:01;18.00;;;11.63;;
52033;SDS011;38045;52.988;6.536;2023-02-28T05:59:26;18.52;;;11.63;;
52033;SDS011;38045;52.988;6.536;2023-02-28T06:01:52;16.73;;;12.10;;
52033;SDS011;38045;52.988;6.536;2023-02-28T06:04:18;19.65;;;11.07;;
52033;SDS011;38045;52.988;6.536;2023-02-28T06:06:46;19.35;;;11.27;;
52033;SDS011;38045;52.988;6.536;2023-02-28T06:09:12;20.40;;;13.40;;
52033;SDS011;38045;52.988;6.536;2023-02-28T06:11:38;17.65;;;9.13;;
52033;SDS011;38045;52.988;6.536;2023-02-28T06:14:04;16.95;;;11.18;;
52033;SDS011;38045;52.988;6.536;2023-02-28T06:16:31;15.88;;;12.43;;
52033;SDS011;38045;52.988;6.536;2023-02-28T06:18:58;17.30;;;11.73;;
52033;SDS011;38045;52.988;6.536;2023-02-28T06:21:25;18.25;;;13.45;;
52033;SDS011;38045;52.988;6.536;2023-02-28T06:23:52;20.00;;;14.30;;
52033;SDS011;38045;52.988;6.536;2023-02-28T06:26:18;24.23;;;13.77;;
52033;SDS011;38045;52.988;6.536;2023-02-28T06:28:44;15.52;;;10.90;;
52033;SDS011;38045;52.988;6.536;2023-02-28T06:31:10;19.02;;;13.60;;
52033;SDS011;38045;52.988;6.536;2023-02-28T06:33:38;26.73;;;15.45;;
52033;SDS011;38045;52.988;6.536;2023-02-28T06:36:04;19.42;;;14.82;;
52033;SDS011;38045;52.988;6.536;2023-02-28T06:38:31;19.98;;;13.60;;
52033;SDS011;38045;52.988;6.536;2023-02-28T06:40:57;22.20;;;13.60;;
52033;SDS011;38045;52.988;6.536;2023-02-28T06:43:28;19.55;;;12.55;;
52033;SDS011;38045;52.988;6.536;2023-02-28T06:45:56;18.30;;;13.60;;
52033;SDS011;38045;52.988;6.536;2023-02-28T06:48:23;18.95;;;14.13;;
52033;SDS011;38045;52.988;6.536;2023-02-28T06:50:50;22.92;;;12.32;;
52033;SDS011;38045;52.988;6.536;2023-02-28T06:53:17;22.38;;;13.20;;
52033;SDS011;38045;52.988;6.536;2023-02-28T06:55:43;21.33;;;13.95;;
52033;SDS011;38045;52.988;6.536;2023-02-28T06:58:09;21.15;;;12.45;;
52033;SDS011;38045;52.988;6.536;2023-02-28T07:00:43;25.90;;;14.35;;
52033;SDS011;38045;52.988;6.536;2023-02-28T07:03:10;22.20;;;13.48;;
52033;SDS011;38045;52.988;6.536;2023-02-28T07:05:37;20.38;;;16.92;;
52033;SDS011;38045;52.988;6.536;2023-02-28T07:08:04;19.40;;;12.15;;
52033;SDS011;38045;52.988;6.536;2023-02-28T07:10:31;18.73;;;12.90;;
52033;SDS011;38045;52.988;6.536;2023-02-28T07:13:02;19.73;;;13.32;;
52033;SDS011;38045;52.988;6.536;2023-02-28T07:15:29;18.20;;;12.13;;
52033;SDS011;38045;52.988;6.536;2023-02-28T07:17:54;19.13;;;13.60;;
52033;SDS011;38045;52.988;6.536;2023-02-28T07:20:22;20.88;;;12.93;;
52033;SDS011;38045;52.988;6.536;2023-02-28T07:22:49;19.00;;;12.98;;
52033;SDS011;38045;52.988;6.536;2023-02-28T07:25:22;17.48;;;12.27;;
52033;SDS011;38045;52.988;6.536;2023-02-28T07:27:48;18.55;;;12.07;;
52033;SDS011;38045;52.988;6.536;2023-02-28T07:30:14;24.63;;;13.10;;
52033;SDS011;38045;52.988;6.536;2023-02-28T07:32:39;19.30;;;10.98;;
52033;SDS011;38045;52.988;6.536;2023-02-28T07:35:05;21.50;;;10.15;;
52033;SDS011;38045;52.988;6.536;2023-02-28T07:37:31;21.85;;;13.32;;
52033;SDS011;38045;52.988;6.536;2023-02-28T07:40:02;20.02;;;11.60;;
52033;SDS011;38045;52.988;6.536;2023-02-28T07:42:31;14.02;;;10.25;;
52033;SDS011;38045;52.988;6.536;2023-02-28T07:44:57;14.95;;;11.45;;
52033;SDS011;38045;52.988;6.536;2023-02-28T07:47:23;18.80;;;12.05;;
52033;SDS011;38045;52.988;6.536;2023-02-28T07:49:49;16.88;;;12.10;;
52033;SDS011;38045;52.988;6.536;2023-02-28T07:52:15;15.52;;;11.43;;
52033;SDS011;38045;52.988;6.536;2023-02-28T07:54:41;21.67;;;13.77;;
52033;SDS011;38045;52.988;6.536;2023-02-28T07:57:06;12.68;;;9.98;;
52033;SDS011;38045;52.988;6.536;2023-02-28T07:59:33;23.05;;;11.25;;
52033;SDS011;38045;52.988;6.536;2023-02-28T08:01:58;20.23;;;11.38;;
52033;SDS011;38045;52.988;6.536;2023-02-28T08:04:24;15.20;;;11.70;;
52033;SDS011;38045;52.988;6.536;2023-02-28T08:06:50;17.45;;;12.40;;
52033;SDS011;38045;52.988;6.536;2023-02-28T08:09:19;14.18;;;10.98;;
52033;SDS011;38045;52.988;6.536;2023-02-28T08:11:45;19.55;;;11.52;;
52033;SDS011;38045;52.988;6.536;2023-02-28T08:14:10;17.90;;;12.48;;
52033;SDS011;38045;52.988;6.536;2023-02-28T08:16:36;20.80;;;13.43;;
52033;SDS011;38045;52.988;6.536;2023-02-28T08:19:02;15.27;;;10.77;;
52033;SDS011;38045;52.988;6.536;2023-02-28T08:21:27;19.85;;;12.93;;
52033;SDS011;38045;52.988;6.536;2023-02-28T08:23:53;19.80;;;12.57;;
52033;SDS011;38045;52.988;6.536;2023-02-28T08:26:19;21.25;;;13.55;;
52033;SDS011;38045;52.988;6.536;2023-02-28T08:28:45;18.63;;;14.18;;
52033;SDS011;38045;52.988;6.536;2023-02-28T08:31:12;16.45;;;12.40;;
52033;SDS011;38045;52.988;6.536;2023-02-28T08:33:39;14.30;;;11.45;;
52033;SDS011;38045;52.988;6.536;2023-02-28T08:36:06;16.10;;;12.07;;
52033;SDS011;38045;52.988;6.536;2023-02-28T08:38:33;22.15;;;13.80;;
52033;SDS011;38045;52.988;6.536;2023-02-28T08:41:00;17.70;;;12.45;;
52033;SDS011;38045;52.988;6.536;2023-02-28T08:43:28;15.43;;;13.10;;
52033;SDS011;38045;52.988;6.536;2023-02-28T08:45:54;15.75;;;12.52;;
52033;SDS011;38045;52.988;6.536;2023-02-28T08:48:24;17.02;;;11.88;;
52033;SDS011;38045;52.988;6.536;2023-02-28T08:50:54;19.27;;;15.07;;
52033;SDS011;38045;52.988;6.536;2023-02-28T08:53:24;21.13;;;15.75;;
52033;SDS011;38045;52.988;6.536;2023-02-28T08:56:00;11.82;;;9.38;;
52033;SDS011;38045;52.988;6.536;2023-02-28T08:58:34;16.15;;;12.02;;
52033;SDS011;38045;52.988;6.536;2023-02-28T09:01:00;15.88;;;12.93;;
52033;SDS011;38045;52.988;6.536;2023-02-28T09:03:31;13.93;;;10.70;;
52033;SDS011;38045;52.988;6.536;2023-02-28T09:05:58;24.30;;;12.60;;
52033;SDS011;38045;52.988;6.536;2023-02-28T09:08:26;20.75;;;13.77;;
52033;SDS011;38045;52.988;6.536;2023-02-28T09:10:53;27.30;;;14.77;;
52033;SDS011;38045;52.988;6.536;2023-02-28T09:13:21;16.05;;;12.25;;
52033;SDS011;38045;52.988;6.536;2023-02-28T09:15:47;15.32;;;12.80;;
52033;SDS011;38045;52.988;6.536;2023-02-28T09:18:13;13.20;;;11.63;;
52033;SDS011;38045;52.988;6.536;2023-02-28T09:20:39;17.52;;;13.68;;
52033;SDS011;38045;52.988;6.536;2023-02-28T09:23:06;18.45;;;13.35;;
52033;SDS011;38045;52.988;6.536;2023-02-28T09:25:32;15.13;;;11.48;;
52033;SDS011;38045;52.988;6.536;2023-02-28T09:27:58;13.50;;;10.07;;
52033;SDS011;38045;52.988;6.536;2023-02-28T09:30:24;14.00;;;10.88;;
52033;SDS011;38045;52.988;6.536;2023-02-28T09:32:50;13.98;;;11.52;;
52033;SDS011;38045;52.988;6.536;2023-02-28T09:35:22;29.08;;;11.88;;
52033;SDS011;38045;52.988;6.536;2023-02-28T09:37:49;16.23;;;12.07;;
52033;SDS011;38045;52.988;6.536;2023-02-28T09:40:17;12.10;;;9.35;;
52033;SDS011;38045;52.988;6.536;2023-02-28T09:42:47;15.65;;;11.07;;
52033;SDS011;38045;52.988;6.536;2023-02-28T09:48:03;17.83;;;12.95;;
52033;SDS011;38045;52.988;6.536;2023-02-28T09:50:59;9.13;;;7.97;;
52033;SDS011;38045;52.988;6.536;2023-02-28T09:53:29;13.70;;;8.90;;
52033;SDS011;38045;52.988;6.536;2023-02-28T09:56:01;10.63;;;6.80;;
52033;SDS011;38045;52.988;6.536;2023-02-28T10:07:04;12.95;;;8.98;;
52033;SDS011;38045;52.988;6.536;2023-02-28T10:09:42;9.10;;;6.53;;
52033;SDS011;38045;52.988;6.536;2023-02-28T10:12:10;9.35;;;6.85;;
52033;SDS011;38045;52.988;6.536;2023-02-28T10:14:37;9.95;;;4.90;;
52033;SDS011;38045;52.988;6.536;2023-02-28T10:17:12;8.13;;;5.53;;
52033;SDS011;38045;52.988;6.536;2023-02-28T10:20:01;5.82;;;5.22;;
52033;SDS011;38045;52.988;6.536;2023-02-28T10:25:32;5.10;;;4.28;;
52033;SDS011;38045;52.988;6.536;2023-02-28T10:28:13;7.07;;;5.30;;
52033;SDS011;38045;52.988;6.536;2023-02-28T10:30:41;5.40;;;4.93;;
52033;SDS011;38045;52.988;6.536;2023-02-28T10:33:22;5.97;;;4.95;;
52033;SDS011;38045;52.988;6.536;2023-02-28T10:35:53;10.38;;;5.05;;
52033;SDS011;38045;52.988;6.536;2023-02-28T10:38:27;6.53;;;5.30;;
52033;SDS011;38045;52.988;6.536;2023-02-28T10:43:33;6.18;;;5.22;;
52033;SDS011;38045;52.988;6.536;2023-02-28T10:48:44;3.35;;;3.05;;
52033;SDS011;38045;52.988;6.536;2023-02-28T10:51:16;5.97;;;3.30;;
52033;SDS011;38045;52.988;6.536;2023-02-28T10:56:16;8.27;;;3.90;;
52033;SDS011;38045;52.988;6.536;2023-02-28T10:58:47;6.00;;;4.55;;
52033;SDS011;38045;52.988;6.536;2023-02-28T11:01:20;8.07;;;6.22;;
52033;SDS011;38045;52.988;6.536;2023-02-28T11:03:48;6.00;;;4.38;;
52033;SDS011;38045;52.988;6.536;2023-02-28T11:06:21;8.93;;;5.65;;
52033;SDS011;38045;52.988;6.536;2023-02-28T11:08:52;7.63;;;4.82;;
52033;SDS011;38045;52.988;6.536;2023-02-28T11:11:20;5.75;;;5.07;;
52033;SDS011;38045;52.988;6.536;2023-02-28T11:13:50;5.22;;;4.10;;
52033;SDS011;38045;52.988;6.536;2023-02-28T11:16:18;7.18;;;4.30;;
52033;SDS011;38045;52.988;6.536;2023-02-28T11:18:49;5.13;;;4.28;;
52033;SDS011;38045;52.988;6.536;2023-02-28T11:21:38;5.05;;;4.35;;
52033;SDS011;38045;52.988;6.536;2023-02-28T11:24:12;5.78;;;5.28;;
52033;SDS011;38045;52.988;6.536;2023-02-28T11:26:46;6.63;;;4.30;;
52033;SDS011;38045;52.988;6.536;2023-02-28T11:29:20;4.85;;;4.03;;
52033;SDS011;38045;52.988;6.536;2023-02-28T11:32:03;5.78;;;4.07;;
52033;SDS011;38045;52.988;6.536;2023-02-28T11:34:38;7.03;;;3.88;;
52033;SDS011;38045;52.988;6.536;2023-02-28T11:37:09;5.85;;;5.32;;
52033;SDS011;38045;52.988;6.536;2023-02-28T11:39:41;4.30;;;3.88;;
52033;SDS011;38045;52.988;6.536;2023-02-28T11:42:23;5.57;;;4.70;;
52033;SDS011;38045;52.988;6.536;2023-02-28T11:45:21;5.88;;;4.85;;
52033;SDS011;38045;52.988;6.536;2023-02-28T11:50:57;6.25;;;5.65;;
52033;SDS011;38045;52.988;6.536;2023-02-28T12:02:26;8.18;;;5.78;;
52033;SDS011;38045;52.988;6.536;2023-02-28T12:05:12;5.43;;;4.45;;
52033;SDS011;38045;52.988;6.536;2023-02-28T12:07:59;6.93;;;5.93;;
52033;SDS011;38045;52.988;6.536;2023-02-28T12:13:28;6.13;;;4.88;;
52033;SDS011;38045;52.988;6.536;2023-02-28T12:16:09;6.30;;;4.90;;
52033;SDS011;38045;52.988;6.536;2023-02-28T12:27:06;6.85;;;4.40;;
52033;SDS011;38045;52.988;6.536;2023-02-28T12:29:46;6.13;;;5.10;;
52033;SDS011;38045;52.988;6.536;2023-02-28T12:32:40;5.78;;;5.07;;
52033;SDS011;38045;52.988;6.536;2023-02-28T12:40:11;10.60;;;5.00;;
52033;SDS011;38045;52.988;6.536;2023-02-28T12:42:42;4.35;;;3.95;;
52033;SDS011;38045;52.988;6.536;2023-02-28T12:45:43;11.45;;;5.50;;
52033;SDS011;38045;52.988;6.536;2023-02-28T12:48:37;6.47;;;4.72;;
52033;SDS011;38045;52.988;6.536;2023-02-28T12:51:24;4.15;;;3.78;;
52033;SDS011;38045;52.988;6.536;2023-02-28T12:59:23;4.78;;;4.38;;
52033;SDS011;38045;52.988;6.536;2023-02-28T13:02:18;4.13;;;3.80;;
52033;SDS011;38045;52.988;6.536;2023-02-28T13:07:25;5.88;;;4.72;;
52033;SDS011;38045;52.988;6.536;2023-02-28T13:09:59;4.97;;;3.77;;
52033;SDS011;38045;52.988;6.536;2023-02-28T13:12:27;6.45;;;5.38;;
52033;SDS011;38045;52.988;6.536;2023-02-28T13:17:30;4.95;;;4.50;;
52033;SDS011;38045;52.988;6.536;2023-02-28T13:19:57;4.63;;;4.22;;
52033;SDS011;38045;52.988;6.536;2023-02-28T13:22:38;5.38;;;4.28;;
52033;SDS011;38045;52.988;6.536;2023-02-28T13:27:46;5.70;;;5.07;;
52033;SDS011;38045;52.988;6.536;2023-02-28T13:38:54;5.53;;;4.05;;
52033;SDS011;38045;52.988;6.536;2023-02-28T13:44:06;6.10;;;5.50;;
52033;SDS011;38045;52.988;6.536;2023-02-28T13:46:32;6.28;;;4.60;;
52033;SDS011;38045;52.988;6.536;2023-02-28T13:56:55;4.57;;;3.72;;
52033;SDS011;38045;52.988;6.536;2023-02-28T13:59:50;6.25;;;4.93;;
52033;SDS011;38045;52.988;6.536;2023-02-28T14:02:58;4.93;;;4.30;;
52033;SDS011;38045;52.988;6.536;2023-02-28T14:05:35;5.33;;;4.83;;
52033;SDS011;38045;52.988;6.536;2023-02-28T14:08:07;5.95;;;4.60;;
52033;SDS011;38045;52.988;6.536;2023-02-28T14:10:49;5.88;;;5.40;;
52033;SDS011;38045;52.988;6.536;2023-02-28T14:16:02;5.47;;;4.95;;
52033;SDS011;38045;52.988;6.536;2023-02-28T14:18:34;4.72;;;4.38;;
52033;SDS011;38045;52.988;6.536;2023-02-28T14:21:09;8.15;;;4.25;;
52033;SDS011;38045;52.988;6.536;2023-02-28T14:32:18;4.70;;;4.03;;
52033;SDS011;38045;52.988;6.536;2023-02-28T14:37:44;4.85;;;3.72;;
52033;SDS011;38045;52.988;6.536;2023-02-28T14:40:32;7.05;;;4.00;;
52033;SDS011;38045;52.988;6.536;2023-02-28T14:42:59;5.93;;;4.80;;
52033;SDS011;38045;52.988;6.536;2023-02-28T14:45:30;3.40;;;3.20;;
52033;SDS011;38045;52.988;6.536;2023-02-28T14:48:01;4.90;;;4.50;;
52033;SDS011;38045;52.988;6.536;2023-02-28T14:50:30;8.48;;;3.70;;
52033;SDS011;38045;52.988;6.536;2023-02-28T14:53:00;6.50;;;4.28;;
52033;SDS011;38045;52.988;6.536;2023-02-28T14:55:31;6.22;;;4.20;;
52033;SDS011;38045;52.988;6.536;2023-02-28T14:57:59;5.25;;;3.85;;
52033;SDS011;38045;52.988;6.536;2023-02-28T15:00:35;4.28;;;3.92;;
52033;SDS011;38045;52.988;6.536;2023-02-28T15:06:00;6.10;;;3.92;;
52033;SDS011;38045;52.988;6.536;2023-02-28T15:08:30;5.07;;;3.60;;
52033;SDS011;38045;52.988;6.536;2023-02-28T15:11:04;5.68;;;3.78;;
52033;SDS011;38045;52.988;6.536;2023-02-28T15:13:36;4.70;;;3.80;;
52033;SDS011;38045;52.988;6.536;2023-02-28T15:16:12;4.63;;;4.25;;
52033;SDS011;38045;52.988;6.536;2023-02-28T15:21:13;5.22;;;3.92;;
52033;SDS011;38045;52.988;6.536;2023-02-28T15:23:43;4.57;;;3.85;;
52033;SDS011;38045;52.988;6.536;2023-02-28T15:26:39;4.70;;;3.92;;
52033;SDS011;38045;52.988;6.536;2023-02-28T15:29:15;4.78;;;4.20;;
52033;SDS011;38045;52.988;6.536;2023-02-28T15:31:45;5.10;;;3.95;;
52033;SDS011;38045;52.988;6.536;2023-02-28T15:34:21;5.43;;;4.38;;
52033;SDS011;38045;52.988;6.536;2023-02-28T15:36:51;5.35;;;4.18;;
52033;SDS011;38045;52.988;6.536;2023-02-28T15:39:24;4.97;;;4.55;;
52033;SDS011;38045;52.988;6.536;2023-02-28T15:42:16;5.00;;;3.83;;
52033;SDS011;38045;52.988;6.536;2023-02-28T15:44:44;4.50;;;4.05;;
52033;SDS011;38045;52.988;6.536;2023-02-28T15:47:16;6.05;;;5.45;;
52033;SDS011;38045;52.988;6.536;2023-02-28T15:49:45;5.50;;;4.53;;
52033;SDS011;38045;52.988;6.536;2023-02-28T15:52:18;5.05;;;4.43;;
52033;SDS011;38045;52.988;6.536;2023-02-28T15:54:51;4.75;;;4.38;;
52033;SDS011;38045;52.988;6.536;2023-02-28T15:57:27;6.68;;;4.53;;
52033;SDS011;38045;52.988;6.536;2023-02-28T15:59:55;5.85;;;5.35;;
52033;SDS011;38045;52.988;6.536;2023-02-28T16:02:33;8.07;;;5.28;;
52033;SDS011;38045;52.988;6.536;2023-02-28T16:05:12;6.63;;;5.55;;
52033;SDS011;38045;52.988;6.536;2023-02-28T16:07:45;6.53;;;5.25;;
52033;SDS011;38045;52.988;6.536;2023-02-28T16:10:13;6.00;;;5.22;;
52033;SDS011;38045;52.988;6.536;2023-02-28T16:12:39;7.55;;;5.28;;
52033;SDS011;38045;52.988;6.536;2023-02-28T16:15:16;7.10;;;6.40;;
52033;SDS011;38045;52.988;6.536;2023-02-28T16:17:47;6.75;;;5.38;;
52033;SDS011;38045;52.988;6.536;2023-02-28T16:20:22;6.57;;;4.97;;
52033;SDS011;38045;52.988;6.536;2023-02-28T16:22:53;5.53;;;4.80;;
52033;SDS011;38045;52.988;6.536;2023-02-28T16:25:23;7.80;;;5.50;;
52033;SDS011;38045;52.988;6.536;2023-02-28T16:27:53;6.97;;;6.28;;
52033;SDS011;38045;52.988;6.536;2023-02-28T16:30:24;6.68;;;5.90;;
52033;SDS011;38045;52.988;6.536;2023-02-28T16:32:51;8.27;;;6.20;;
52033;SDS011;38045;52.988;6.536;2023-02-28T16:35:18;9.18;;;6.45;;
52033;SDS011;38045;52.988;6.536;2023-02-28T16:37:45;5.75;;;5.15;;
52033;SDS011;38045;52.988;6.536;2023-02-28T16:40:17;8.18;;;7.40;;
52033;SDS011;38045;52.988;6.536;2023-02-28T16:42:46;11.00;;;7.13;;
52033;SDS011;38045;52.988;6.536;2023-02-28T16:45:14;9.82;;;7.00;;
52033;SDS011;38045;52.988;6.536;2023-02-28T16:47:46;8.80;;;7.80;;
52033;SDS011;38045;52.988;6.536;2023-02-28T16:50:13;8.10;;;6.70;;
52033;SDS011;38045;52.988;6.536;2023-02-28T16:52:47;8.30;;;7.50;;
52033;SDS011;38045;52.988;6.536;2023-02-28T16:55:14;11.52;;;6.95;;
52033;SDS011;38045;52.988;6.536;2023-02-28T16:57:40;10.57;;;7.93;;
52033;SDS011;38045;52.988;6.536;2023-02-28T17:00:07;10.65;;;8.27;;
52033;SDS011;38045;52.988;6.536;2023-02-28T17:02:37;8.43;;;7.63;;
52033;SDS011;38045;52.988;6.536;2023-02-28T17:05:04;9.07;;;7.90;;
52033;SDS011;38045;52.988;6.536;2023-02-28T17:07:30;9.77;;;7.50;;
52033;SDS011;38045;52.988;6.536;2023-02-28T17:09:55;7.85;;;7.05;;
52033;SDS011;38045;52.988;6.536;2023-02-28T17:12:21;8.73;;;7.88;;
52033;SDS011;38045;52.988;6.536;2023-02-28T17:14:47;11.15;;;8.70;;